Αρχική σελίδα
METAR-TAF:

METAR-TAF

Αεροδρόμια :

Futuna, Γαλλία

γεωγραφικό πλάτος: 14-19S, γεωγραφικό μήκος: 178-07W, υψόμετρο: 6 μ

METAR: λείπει

Χρόνος: 13:14 (01:14 UTC)

Πρόγνωση Καιρού

Η αναφορά έγινε 2 ώρες και 14 λεπτά πριν, στις 23:00 UTC
Η πρόγνωση ισχύει από τις 15 στις 00 UTC έως τις 15 στις 24 UTC
Άνεμος 12 kt από Α/NA
Ορατότητα 10 χλμ και άνω
Διάσπαρτα νέφη σε ύψος 2000 πόδια
Προσωρινά
από 15 στις 00 UTC έως τις 15 στις 05 UTC
Ορατότητα: 4500 μ
Αρκετά νέφη σε ύψος 1400 πόδια
Διάσπαρτα νέφη σε ύψος 2000 πόδια, Σωρείτες καθέτου αναπτύξεως.
Όμβροι
Προσωρινά
από 15 στις 15 UTC έως τις 15 στις 24 UTC
Λίγα νέφη σε ύψος 2000 πόδια, Σωρείτες καθέτου αναπτύξεως.
Όμβροι,

TAF: NLWF 142300Z 1500/1524 12012KT 9999 SCT020 TEMPO 1500/1505 4500 SHRA BKN014 SCT020TCU TEMPO 1515/1524 SHRA FEW020TCU

Μετεωρολογικές αναφορές και προγνώσεις για περισσότερα από 4000 αεροδρόμια (δελτία METAR και TAF).

Οι διαθέσιμοι σταθμοί απεικονίζονται στο χάρτη με κίτρινες και κόκκινες κουκκίδες.

Μετακινήστε το ποντίκι πάνω από τις κουκκίδες για να δείτε το όνομα του σταθμού.

Στη συνέχεια, κάντε κλικ για να δείτε τις μετεωρολογικές αναφορές και τις προγνώσεις καιρού.

Για να αλλάξετε το χάρτη: κάντε κλικ στα πράσινα κουμπιά με τον μαύρο σταυρό για να ζουμάρετε, στο πράσινο κουμπί με την παύλα για να αφαιρέσετε το ζουμ ή στα πράσινα βέλη για να αντιπαραβάλλετε χάρτες.


METAR-TAF: